Time;durP1;ratioP1;P1;durP2;ratioP2;P2;SDS_P1;SDS_P2;PMS_P1;PMS_P2;Temp;Humidity;BMP_temperature;BMP_pressure;BME280_temperature;BME280_humidity;BME280_pressure;Samples;Min_cycle;Max_cycle;Signal;HPM_P1;HPM_P2
2022/05/16 00:02:06;;;;;;;7.75;3.47;;;20.70;92.20;;;;;;5073183;28;20020;-69
2022/05/16 00:04:34;;;;;;;6.93;3.83;;;20.60;92.40;;;;;;5071866;28;20017;-68
2022/05/16 00:07:00;;;;;;;6.60;3.50;;;20.60;92.60;;;;;;5070017;28;20115;-69
2022/05/16 00:09:25;;;;;;;9.50;3.75;;;20.60;92.60;;;;;;5070193;28;20108;-69
2022/05/16 00:11:51;;;;;;;8.55;3.78;;;20.60;92.70;;;;;;5071332;28;20028;-69
2022/05/16 00:14:17;;;;;;;6.97;3.40;;;20.60;92.10;;;;;;5068214;28;20040;-69
2022/05/16 00:16:42;;;;;;;6.28;3.63;;;20.60;92.70;;;;;;5072083;28;20482;-69
2022/05/16 00:19:08;;;;;;;8.02;3.38;;;20.50;93.40;;;;;;5072196;28;20028;-69
2022/05/16 00:21:35;;;;;;;5.43;3.50;;;20.50;93.00;;;;;;5064735;28;20039;-69
2022/05/16 00:24:00;;;;;;;7.15;3.63;;;20.50;93.50;;;;;;5063155;28;20028;-69
2022/05/16 00:26:26;;;;;;;8.60;3.42;;;20.50;92.50;;;;;;5070039;28;20030;-69
2022/05/16 00:28:52;;;;;;;8.63;3.50;;;20.50;93.10;;;;;;5063671;28;20104;-69
2022/05/16 00:31:17;;;;;;;8.90;4.60;;;20.50;92.80;;;;;;5062607;28;20024;-69
2022/05/16 00:33:43;;;;;;;10.00;4.18;;;20.50;92.50;;;;;;5071889;28;20059;-69
2022/05/16 00:36:09;;;;;;;7.82;3.75;;;20.50;92.40;;;;;;5058369;28;20036;-69
2022/05/16 00:38:35;;;;;;;7.93;3.83;;;20.40;93.30;;;;;;5059791;28;20136;-69
2022/05/16 00:41:02;;;;;;;6.43;3.47;;;20.40;92.90;;;;;;5059037;28;20107;-69
2022/05/16 00:43:58;;;;;;;7.63;3.70;;;20.30;92.80;;;;;;5056962;28;20378;-69
2022/05/16 00:46:33;;;;;;;6.45;3.58;;;20.40;92.60;;;;;;5057241;28;20028;-69
2022/05/16 00:49:01;;;;;;;8.05;3.80;;;20.40;92.50;;;;;;5056189;28;20031;-69
2022/05/16 00:51:30;;;;;;;9.15;3.78;;;20.30;93.10;;;;;;5060897;28;20420;-69
2022/05/16 00:54:05;;;;;;;5.35;3.20;;;20.30;93.30;;;;;;5055314;28;20029;-69
2022/05/16 00:56:32;;;;;;;6.50;3.88;;;20.20;93.20;;;;;;5059489;28;20556;-69
2022/05/16 00:58:58;;;;;;;8.20;3.70;;;20.30;93.20;;;;;;5059224;28;20025;-69
2022/05/16 01:06:56;;;;;;;8.82;4.38;;;20.10;93.00;;;;;;5065301;28;20043;-69
2022/05/16 01:09:22;;;;;;;7.32;3.60;;;20.10;93.10;;;;;;5065917;28;20020;-69
2022/05/16 01:11:48;;;;;;;5.03;3.60;;;20.00;92.90;;;;;;5060184;28;20055;-69
2022/05/16 01:14:57;;;;;;;8.32;3.55;;;20.00;93.70;;;;;;5061718;28;21983;-68
2022/05/16 01:17:24;;;;;;;8.25;3.30;;;20.00;93.70;;;;;;5062185;28;20060;-68
2022/05/16 01:19:50;;;;;;;8.15;3.88;;;19.90;93.40;;;;;;5063368;28;20111;-68
2022/05/16 01:22:23;;;;;;;5.68;4.03;;;19.90;94.00;;;;;;5063238;28;20039;-69
2022/05/16 01:24:52;;;;;;;8.95;3.97;;;19.90;94.00;;;;;;5066548;28;20027;-69
2022/05/16 01:27:17;;;;;;;6.45;3.72;;;19.80;94.20;;;;;;5059345;28;20017;-68
2022/05/16 01:29:43;;;;;;;7.07;3.67;;;19.70;93.50;;;;;;5066053;28;20535;-68
2022/05/16 01:32:10;;;;;;;5.78;3.40;;;19.80;93.30;;;;;;5065248;28;20024;-69
2022/05/16 01:34:37;;;;;;;7.63;3.95;;;19.80;93.30;;;;;;5067729;28;20028;-68
2022/05/16 01:37:03;;;;;;;8.85;3.63;;;19.80;94.40;;;;;;5063320;28;20639;-69
2022/05/16 01:39:28;;;;;;;6.93;3.67;;;19.70;94.40;;;;;;5063472;28;20048;-69
2022/05/16 01:41:54;;;;;;;6.53;3.70;;;19.70;93.70;;;;;;5064443;28;20060;-69
2022/05/16 01:44:20;;;;;;;7.93;3.50;;;19.60;93.90;;;;;;5071794;28;20025;-68
2022/05/16 01:46:46;;;;;;;6.55;3.55;;;19.60;94.60;;;;;;5077435;28;20020;-69
2022/05/16 01:49:11;;;;;;;8.32;4.38;;;19.50;94.70;;;;;;5071376;28;20091;-69
2022/05/16 01:51:38;;;;;;;10.77;4.20;;;19.50;94.90;;;;;;5075397;28;20024;-69
2022/05/16 01:54:05;;;;;;;7.40;3.65;;;19.50;94.40;;;;;;5072477;28;20032;-69
2022/05/16 01:56:31;;;;;;;7.60;3.50;;;19.30;95.20;;;;;;5076122;28;20127;-69
2022/05/16 01:58:59;;;;;;;10.77;3.20;;;19.30;95.10;;;;;;5076780;28;20345;-69
2022/05/16 02:01:25;;;;;;;5.43;3.40;;;19.20;95.40;;;;;;5076536;28;20028;-69
2022/05/16 02:03:50;;;;;;;6.63;3.40;;;19.10;94.60;;;;;;5072559;28;20460;-69
2022/05/16 02:06:16;;;;;;;6.53;3.22;;;19.10;95.60;;;;;;5075196;28;20472;-69
2022/05/16 02:08:43;;;;;;;6.97;3.40;;;19.10;94.80;;;;;;5078383;28;20021;-69
2022/05/16 02:11:09;;;;;;;6.70;3.78;;;19.10;94.50;;;;;;5071364;28;20069;-69
2022/05/16 02:13:37;;;;;;;7.32;3.08;;;19.20;94.20;;;;;;5069710;28;20079;-69
2022/05/16 02:16:02;;;;;;;7.63;3.40;;;19.20;94.40;;;;;;5074318;28;20088;-69
2022/05/16 02:18:29;;;;;;;7.65;3.10;;;19.10;94.90;;;;;;5069481;28;20021;-69
2022/05/16 02:24:38;;;;;;;8.93;3.30;;;19.10;94.10;;;;;;5074958;28;20032;-69
2022/05/16 02:26:25;;;;;;;5.03;3.25;;;19.10;94.70;;;;;;5069885;28;20043;-69
2022/05/16 02:28:51;;;;;;;6.10;3.15;;;19.00;95.00;;;;;;5076553;28;20016;-68
2022/05/16 02:31:19;;;;;;;9.20;3.40;;;19.00;95.50;;;;;;5071794;28;20024;-69
2022/05/16 02:33:46;;;;;;;5.13;3.25;;;18.90;95.40;;;;;;5071815;28;20013;-69
2022/05/16 02:36:11;;;;;;;12.32;4.10;;;19.00;94.60;;;;;;5076761;28;20040;-69
2022/05/16 02:38:37;;;;;;;8.55;3.40;;;18.90;95.20;;;;;;5073368;28;20024;-69
2022/05/16 02:41:03;;;;;;;6.13;3.70;;;18.90;95.60;;;;;;5075598;28;20500;-69
2022/05/16 02:43:28;;;;;;;4.07;3.08;;;18.90;95.00;;;;;;5074791;28;20075;-69
2022/05/16 02:45:54;;;;;;;13.52;3.20;;;18.80;95.60;;;;;;5076508;28;20439;-69
2022/05/16 02:48:19;;;;;;;4.85;3.40;;;18.80;96.10;;;;;;5076697;28;20028;-68
2022/05/16 02:50:45;;;;;;;7.63;3.53;;;18.80;95.90;;;;;;5070215;28;20107;-68
2022/05/16 02:53:11;;;;;;;8.65;3.30;;;18.80;94.90;;;;;;5076291;28;20460;-69
2022/05/16 02:55:36;;;;;;;9.65;3.13;;;18.80;95.70;;;;;;5072106;28;20032;-69
2022/05/16 02:58:02;;;;;;;5.22;3.25;;;18.70;95.80;;;;;;5075536;28;20028;-69
2022/05/16 03:00:27;;;;;;;6.22;3.50;;;18.70;95.90;;;;;;5065819;28;20029;-69
2022/05/16 03:02:53;;;;;;;7.20;3.33;;;18.70;96.10;;;;;;5074159;28;20481;-69
2022/05/16 03:05:19;;;;;;;5.60;3.17;;;18.70;96.00;;;;;;5069206;28;20028;-69
2022/05/16 03:07:45;;;;;;;5.60;3.70;;;18.70;95.40;;;;;;5071349;28;20537;-69
2022/05/16 03:10:15;;;;;;;8.27;3.17;;;18.70;95.90;;;;;;5070639;28;20609;-69
2022/05/16 03:12:43;;;;;;;7.32;3.42;;;18.80;95.30;;;;;;5074159;28;20041;-69
2022/05/16 03:15:09;;;;;;;9.38;4.13;;;18.60;95.30;;;;;;5073869;28;20063;-69
2022/05/16 03:17:35;;;;;;;7.25;3.10;;;18.70;95.40;;;;;;5073365;28;20056;-69
2022/05/16 03:20:02;;;;;;;7.70;4.10;;;18.60;96.50;;;;;;5073234;28;20056;-69
2022/05/16 03:22:28;;;;;;;4.93;3.50;;;18.70;96.00;;;;;;5070005;28;20178;-69
2022/05/16 03:24:53;;;;;;;9.57;3.80;;;18.60;96.50;;;;;;5075383;28;20075;-68
2022/05/16 03:27:19;;;;;;;10.52;3.30;;;18.60;96.60;;;;;;5074291;28;20017;-69
2022/05/16 03:29:46;;;;;;;6.93;3.70;;;18.50;97.00;;;;;;5074927;28;20032;-68
2022/05/16 03:32:12;;;;;;;4.82;4.35;;;18.60;96.90;;;;;;5070464;28;20025;-69
2022/05/16 03:34:38;;;;;;;6.20;3.97;;;18.60;96.50;;;;;;5071617;28;20031;-69
2022/05/16 03:37:03;;;;;;;6.75;3.33;;;18.70;96.20;;;;;;5074930;28;20435;-69
2022/05/16 03:42:14;;;;;;;6.20;3.45;;;18.60;97.10;;;;;;5072699;28;20158;-69
2022/05/16 03:44:39;;;;;;;6.05;4.20;;;18.50;97.30;;;;;;5074068;28;20070;-69
2022/05/16 03:47:05;;;;;;;6.13;3.70;;;18.50;96.70;;;;;;5075461;28;20036;-69
2022/05/16 03:49:31;;;;;;;6.28;4.32;;;18.50;97.00;;;;;;5065274;28;20035;-69
2022/05/16 03:51:57;;;;;;;12.93;4.20;;;18.40;97.60;;;;;;5074596;28;20059;-69
2022/05/16 03:54:23;;;;;;;5.45;3.38;;;18.40;97.10;;;;;;5069401;28;20424;-69
2022/05/16 03:56:48;;;;;;;5.72;3.63;;;18.40;97.20;;;;;;5075496;28;20039;-69
2022/05/16 03:59:14;;;;;;;5.55;3.58;;;18.40;97.20;;;;;;5073779;28;20031;-69
2022/05/16 04:01:39;;;;;;;9.35;3.90;;;18.50;97.20;;;;;;5074387;28;20357;-69
2022/05/16 04:04:05;;;;;;;5.88;3.78;;;18.40;96.80;;;;;;5071422;28;20027;-69
2022/05/16 04:06:34;;;;;;;6.72;4.10;;;18.50;96.60;;;;;;5072805;28;20461;-68
2022/05/16 04:09:00;;;;;;;10.15;4.50;;;18.50;96.60;;;;;;5068377;28;20044;-69
2022/05/16 04:11:26;;;;;;;8.57;3.88;;;18.50;96.60;;;;;;5071396;28;20032;-69
2022/05/16 04:13:52;;;;;;;5.88;3.55;;;18.50;96.70;;;;;;5069269;28;20036;-69
2022/05/16 04:16:17;;;;;;;6.05;4.38;;;18.60;97.10;;;;;;5072115;28;20041;-69
2022/05/16 04:18:44;;;;;;;8.65;4.35;;;18.60;96.80;;;;;;5074092;28;20598;-69
2022/05/16 04:21:11;;;;;;;7.90;4.32;;;18.70;97.00;;;;;;5070731;28;20024;-69
2022/05/16 04:23:37;;;;;;;8.52;3.70;;;18.70;96.20;;;;;;5074261;28;20021;-69
2022/05/16 04:26:02;;;;;;;6.53;3.20;;;18.60;96.80;;;;;;5075272;28;20094;-69
2022/05/16 04:28:28;;;;;;;5.60;3.78;;;18.60;96.30;;;;;;5071625;28;20453;-69
2022/05/16 04:30:54;;;;;;;11.27;3.85;;;18.70;96.60;;;;;;5071537;28;20043;-69
2022/05/16 04:33:19;;;;;;;7.38;4.88;;;18.60;97.00;;;;;;5073593;28;20082;-69
2022/05/16 04:35:45;;;;;;;9.93;4.05;;;18.60;97.50;;;;;;5074013;28;20085;-69
2022/05/16 04:38:11;;;;;;;5.90;3.78;;;18.50;98.70;;;;;;5073836;28;20091;-68
2022/05/16 04:42:40;;;;;;;9.05;5.03;;;18.50;98.10;;;;;;5073486;28;20110;-68
2022/05/16 04:43:22;;;;;;;10.48;4.22;;;18.60;97.70;;;;;;5073271;28;20037;-69
2022/05/16 04:45:48;;;;;;;7.32;3.95;;;18.70;97.50;;;;;;5071965;28;20074;-69
2022/05/16 04:48:13;;;;;;;10.00;4.90;;;18.70;97.20;;;;;;5074563;28;20029;-69
2022/05/16 04:50:39;;;;;;;4.97;4.10;;;18.70;98.30;;;;;;5064723;28;20469;-69
2022/05/16 04:53:05;;;;;;;6.32;4.28;;;18.70;98.10;;;;;;5075036;28;20031;-69
2022/05/16 04:55:31;;;;;;;9.57;4.43;;;18.90;97.90;;;;;;5072536;28;20101;-69
2022/05/16 04:57:59;;;;;;;9.85;4.50;;;18.90;97.40;;;;;;5073940;28;20099;-69
2022/05/16 05:00:25;;;;;;;6.43;3.78;;;18.90;98.10;;;;;;5089875;28;20506;-69
2022/05/16 05:02:51;;;;;;;7.80;4.32;;;18.90;98.10;;;;;;5072995;28;20047;-69
2022/05/16 05:05:18;;;;;;;9.55;4.72;;;18.80;98.90;;;;;;5071668;28;20032;-68
2022/05/16 05:07:45;;;;;;;12.35;4.45;;;18.90;98.90;;;;;;5066988;28;20032;-68
2022/05/16 05:15:43;;;;;;;9.32;4.97;;;19.00;98.20;;;;;;5071299;28;20051;-69
2022/05/16 05:18:09;;;;;;;11.90;4.45;;;19.10;98.00;;;;;;5069183;28;20013;-68
2022/05/16 05:20:35;;;;;;;5.05;3.78;;;19.10;99.00;;;;;;5073315;28;20067;-69
2022/05/16 05:23:03;;;;;;;6.70;4.57;;;18.90;99.90;;;;;;5067631;28;20013;-69
2022/05/16 05:25:28;;;;;;;9.27;4.65;;;18.90;99.90;;;;;;5071101;28;20033;-69
2022/05/16 05:27:55;;;;;;;6.35;4.50;;;19.00;99.90;;;;;;5070188;28;20017;-69
2022/05/16 05:30:25;;;;;;;7.10;4.32;;;19.20;99.40;;;;;;5072469;28;20029;-69
2022/05/16 05:32:52;;;;;;;7.30;4.15;;;19.20;99.90;;;;;;5069622;28;20016;-69
2022/05/16 05:35:19;;;;;;;10.90;4.63;;;19.20;99.50;;;;;;5072395;28;20048;-69
2022/05/16 05:37:45;;;;;;;8.23;4.57;;;19.30;99.90;;;;;;5070446;28;20017;-69
2022/05/16 05:40:11;;;;;;;6.93;4.43;;;19.30;99.90;;;;;;5067391;28;20173;-69
2022/05/16 05:42:37;;;;;;;7.60;4.95;;;19.30;99.90;;;;;;5063350;28;20029;-69
2022/05/16 05:45:05;;;;;;;9.48;5.05;;;19.30;99.10;;;;;;5065128;28;20447;-69
2022/05/16 05:47:30;;;;;;;7.75;4.75;;;19.40;99.50;;;;;;5073311;28;20073;-69
2022/05/16 05:49:56;;;;;;;5.32;3.83;;;19.50;98.50;;;;;;5069301;28;20472;-69
2022/05/16 05:52:22;;;;;;;9.45;4.57;;;19.60;98.70;;;;;;5074990;28;20522;-69
2022/05/16 05:54:48;;;;;;;8.07;4.72;;;19.60;99.70;;;;;;5073348;28;20024;-68
2022/05/16 05:57:16;;;;;;;8.30;4.88;;;19.70;98.70;;;;;;5071752;28;20036;-69
2022/05/16 05:59:42;;;;;;;6.43;4.60;;;19.70;99.20;;;;;;5075384;28;20038;-68
2022/05/16 06:02:09;;;;;;;11.30;3.70;;;19.70;99.90;;;;;;5076417;28;20449;-68
2022/05/16 06:04:35;;;;;;;6.68;4.00;;;19.80;99.30;;;;;;5064480;28;20020;-68
2022/05/16 06:07:02;;;;;;;8.00;4.20;;;19.80;99.40;;;;;;5065903;28;20055;-69
2022/05/16 06:09:27;;;;;;;8.23;4.70;;;19.90;99.20;;;;;;5065187;28;20031;-68
2022/05/16 06:11:54;;;;;;;10.43;4.53;;;20.00;99.60;;;;;;5064105;28;20032;-68
2022/05/16 06:14:20;;;;;;;7.90;4.55;;;20.00;99.90;;;;;;5063844;28;20029;-68
2022/05/16 06:16:45;;;;;;;8.32;4.50;;;20.00;99.30;;;;;;5064264;28;20370;-68
2022/05/16 06:19:11;;;;;;;8.13;4.68;;;20.00;99.90;;;;;;5064409;28;20017;-68
2022/05/16 06:21:38;;;;;;;7.88;4.68;;;20.00;99.90;;;;;;5064583;28;20025;-68
2022/05/16 06:24:04;;;;;;;7.38;4.57;;;20.10;99.90;;;;;;5062713;28;20150;-68
2022/05/16 06:26:30;;;;;;;6.97;4.15;;;20.20;99.90;;;;;;5069227;28;20013;-69
2022/05/16 06:28:57;;;;;;;8.40;3.92;;;20.30;99.90;;;;;;5074036;28;20024;-68
2022/05/16 06:31:23;;;;;;;6.47;4.35;;;20.40;99.90;;;;;;5063541;28;20470;-69
2022/05/16 06:33:49;;;;;;;8.18;4.20;;;20.40;99.90;;;;;;5068926;28;20017;-69
2022/05/16 06:36:16;;;;;;;8.68;4.55;;;20.50;99.90;;;;;;5072281;28;20037;-68
2022/05/16 06:38:42;;;;;;;7.78;4.18;;;20.60;99.90;;;;;;5073451;28;20020;-68
2022/05/16 06:41:09;;;;;;;7.88;4.57;;;20.60;99.90;;;;;;5073929;28;20039;-69
2022/05/16 06:43:35;;;;;;;8.40;4.78;;;20.70;99.90;;;;;;5072121;28;20029;-68
2022/05/16 06:46:02;;;;;;;5.60;3.75;;;20.90;99.90;;;;;;5074780;28;20064;-68
2022/05/16 06:48:28;;;;;;;7.18;3.88;;;21.00;99.90;;;;;;5055708;28;20036;-68
2022/05/16 06:50:55;;;;;;;12.02;3.92;;;21.10;99.90;;;;;;5058583;28;20107;-68
2022/05/16 06:53:24;;;;;;;7.50;3.28;;;21.20;99.90;;;;;;5075039;28;20387;-69
2022/05/16 06:55:50;;;;;;;8.90;3.05;;;21.20;99.90;;;;;;5074370;28;20036;-69
2022/05/16 06:58:16;;;;;;;9.23;2.97;;;21.30;99.90;;;;;;5072978;28;20186;-69
2022/05/16 07:00:42;;;;;;;5.28;2.70;;;21.30;99.90;;;;;;5064227;28;20037;-69
2022/05/16 07:03:09;;;;;;;5.25;2.70;;;21.30;99.90;;;;;;5059833;28;20024;-69
2022/05/16 07:05:34;;;;;;;9.93;2.67;;;21.40;99.90;;;;;;5067054;28;20051;-68
2022/05/16 07:08:00;;;;;;;6.13;3.55;;;21.40;99.90;;;;;;5056944;28;20513;-69
2022/05/16 07:10:26;;;;;;;6.13;2.95;;;21.50;99.90;;;;;;5068033;28;20116;-69
2022/05/16 07:12:52;;;;;;;7.07;3.20;;;21.50;99.90;;;;;;5074273;28;20492;-69
2022/05/16 07:15:19;;;;;;;5.85;3.15;;;21.50;99.90;;;;;;5074090;28;20042;-69
2022/05/16 07:17:45;;;;;;;7.40;3.63;;;21.60;99.90;;;;;;5064512;28;20016;-69
2022/05/16 07:20:11;;;;;;;7.88;3.40;;;21.60;99.90;;;;;;5064255;28;20020;-69
2022/05/16 07:22:48;;;;;;;7.45;3.53;;;21.60;99.90;;;;;;5026950;28;20026;-69
2022/05/16 07:25:16;;;;;;;5.47;2.92;;;21.60;99.90;;;;;;5085885;28;20054;-69
2022/05/16 07:27:59;;;;;;;5.82;3.50;;;21.60;99.90;;;;;;5073382;28;20031;-70
2022/05/16 07:30:27;;;;;;;7.70;3.47;;;21.60;99.90;;;;;;5083817;28;20037;-69
2022/05/16 07:32:55;;;;;;;10.13;3.85;;;21.70;99.90;;;;;;5075208;28;20027;-69
2022/05/16 07:35:27;;;;;;;8.13;3.70;;;21.80;99.90;;;;;;5078900;28;20424;-70
2022/05/16 07:37:53;;;;;;;7.40;3.55;;;21.80;99.90;;;;;;5077611;28;20090;-69
2022/05/16 07:40:21;;;;;;;5.88;3.10;;;21.90;99.90;;;;;;5071248;28;20074;-69
2022/05/16 07:42:48;;;;;;;9.40;3.30;;;22.00;99.90;;;;;;5072722;28;20033;-69
2022/05/16 07:45:14;;;;;;;9.68;2.80;;;22.20;99.90;;;;;;5074163;28;20040;-70
2022/05/16 07:47:39;;;;;;;6.53;2.47;;;22.30;99.90;;;;;;5077723;28;20107;-69
2022/05/16 07:50:07;;;;;;;9.80;2.85;;;22.40;99.60;;;;;;5089355;28;20107;-69
2022/05/16 07:52:33;;;;;;;8.60;2.53;;;22.60;99.30;;;;;;5077795;28;20016;-69
2022/05/16 07:54:59;;;;;;;5.30;2.35;;;22.70;98.80;;;;;;5080956;28;20103;-70
2022/05/16 07:57:26;;;;;;;4.40;3.78;;;22.70;98.60;;;;;;5075921;28;20040;-69
2022/05/16 07:59:52;;;;;;;5.15;2.70;;;22.80;99.50;;;;;;5075405;28;20020;-69
2022/05/16 08:02:17;;;;;;;5.97;3.30;;;22.70;99.40;;;;;;5087567;28;20381;-69
2022/05/16 08:04:43;;;;;;;7.00;2.80;;;22.80;98.90;;;;;;5072035;28;20066;-69
2022/05/16 08:07:09;;;;;;;4.82;2.65;;;23.10;99.20;;;;;;5085522;28;20024;-70
2022/05/16 08:12:27;;;;;;;7.25;2.72;;;23.60;97.80;;;;;;5070138;28;20089;-70
2022/05/16 08:14:53;;;;;;;6.38;2.63;;;23.90;97.70;;;;;;5081025;28;20051;-69
2022/05/16 08:17:20;;;;;;;5.45;2.75;;;24.20;98.00;;;;;;5070863;28;20499;-69
2022/05/16 08:19:46;;;;;;;4.30;2.35;;;24.40;96.20;;;;;;5071455;28;20368;-70
2022/05/16 08:22:12;;;;;;;5.53;2.20;;;24.60;96.30;;;;;;5074656;28;20085;-70
2022/05/16 08:24:38;;;;;;;13.02;3.05;;;24.90;96.40;;;;;;5080896;28;20069;-70
2022/05/16 08:27:04;;;;;;;13.95;2.83;;;25.10;95.80;;;;;;5080476;28;20032;-70
2022/05/16 08:29:30;;;;;;;3.90;2.08;;;25.30;96.40;;;;;;5087813;28;20507;-70
2022/05/16 08:31:56;;;;;;;3.13;2.42;;;25.30;95.30;;;;;;5062819;28;20032;-70
2022/05/16 08:34:25;;;;;;;6.45;2.60;;;25.50;95.10;;;;;;5085598;28;20028;-70
2022/05/16 08:39:54;;;;;;;5.53;2.55;;;25.90;95.30;;;;;;5083275;28;20090;-70
2022/05/16 08:42:29;;;;;;;5.85;2.30;;;26.10;94.80;;;;;;5076469;28;20084;-70
2022/05/16 08:45:04;;;;;;;6.05;2.50;;;26.40;94.30;;;;;;5065747;28;20021;-70
2022/05/16 08:47:52;;;;;;;5.72;2.60;;;26.50;93.40;;;;;;5073668;28;20024;-70
2022/05/16 08:50:42;;;;;;;10.05;2.38;;;26.70;93.20;;;;;;5062261;28;20383;-71
2022/05/16 08:53:28;;;;;;;5.82;2.65;;;26.80;92.90;;;;;;5076078;28;20036;-70
2022/05/16 08:55:59;;;;;;;7.25;2.72;;;27.00;93.00;;;;;;5074981;28;20472;-70
2022/05/16 08:58:33;;;;;;;5.53;2.50;;;27.10;92.00;;;;;;5085165;28;20104;-70
2022/05/16 09:01:24;;;;;;;8.35;2.50;;;27.00;92.10;;;;;;5071885;28;20024;-70
2022/05/16 09:03:59;;;;;;;3.85;2.90;;;26.90;92.80;;;;;;5076464;28;20032;-70
2022/05/16 09:06:37;;;;;;;3.53;2.50;;;26.80;93.60;;;;;;5065838;28;20520;-70
2022/05/16 09:09:06;;;;;;;5.00;2.50;;;26.80;93.70;;;;;;5071516;28;20477;-70
2022/05/16 09:11:46;;;;;;;5.88;2.58;;;27.00;93.40;;;;;;5071791;28;20029;-70
2022/05/16 09:14:21;;;;;;;4.68;2.55;;;27.10;93.50;;;;;;5063280;28;20467;-70
2022/05/16 09:16:59;;;;;;;5.85;2.90;;;27.50;93.40;;;;;;5075236;28;20054;-70
2022/05/16 09:19:27;;;;;;;6.55;2.78;;;27.70;94.70;;;;;;5075701;28;20024;-70
2022/05/16 09:22:15;;;;;;;6.88;2.58;;;27.70;93.50;;;;;;5072297;28;20033;-71
2022/05/16 09:25:04;;;;;;;4.63;2.40;;;27.60;92.90;;;;;;5072583;28;20069;-70
2022/05/16 09:30:20;;;;;;;3.40;2.70;;;27.60;93.60;;;;;;5089212;28;20050;-70
2022/05/16 09:32:55;;;;;;;4.55;2.70;;;27.70;93.30;;;;;;5073548;28;20040;-70
2022/05/16 09:35:54;;;;;;;5.85;2.65;;;28.00;92.50;;;;;;5083735;28;20048;-70
2022/05/16 09:38:20;;;;;;;4.88;3.10;;;28.10;92.50;;;;;;5071461;28;20036;-71
2022/05/16 09:41:01;;;;;;;8.52;3.03;;;28.20;92.50;;;;;;5075488;28;20381;-70
2022/05/16 09:43:40;;;;;;;5.95;3.30;;;28.00;92.40;;;;;;5060264;28;20033;-71
2022/05/16 09:46:14;;;;;;;6.28;2.97;;;27.80;93.30;;;;;;5069879;28;20492;-71
2022/05/16 09:48:40;;;;;;;5.82;3.30;;;28.00;93.00;;;;;;5085427;28;20036;-70
2022/05/16 09:51:07;;;;;;;10.30;2.95;;;28.40;92.90;;;;;;5080030;28;20090;-70
2022/05/16 09:53:38;;;;;;;7.47;2.83;;;28.60;92.40;;;;;;5080896;28;20021;-70
2022/05/16 09:56:12;;;;;;;7.80;3.85;;;28.60;93.10;;;;;;5063887;28;20396;-70
2022/05/16 09:59:00;;;;;;;10.00;3.90;;;28.80;93.20;;;;;;5081424;28;20418;-71
2022/05/16 10:01:40;;;;;;;5.57;3.35;;;28.80;92.80;;;;;;5079854;28;20036;-70
2022/05/16 10:04:20;;;;;;;4.70;3.15;;;29.00;93.20;;;;;;5062856;28;20009;-71
2022/05/16 10:07:03;;;;;;;6.93;3.70;;;29.10;93.00;;;;;;5076643;28;20021;-70
2022/05/16 10:09:36;;;;;;;7.57;3.72;;;28.70;91.90;;;;;;5078434;28;20043;-70
2022/05/16 10:12:04;;;;;;;9.45;4.03;;;28.50;91.80;;;;;;5058152;28;20055;-71
2022/05/16 10:14:30;;;;;;;25.25;5.05;;;28.40;92.40;;;;;;5081934;28;20028;-71
2022/05/16 10:16:56;;;;;;;6.38;3.33;;;28.40;92.50;;;;;;5077169;28;20044;-71
2022/05/16 10:19:26;;;;;;;6.78;3.80;;;28.10;92.70;;;;;;5088527;28;20020;-70
2022/05/16 10:22:14;;;;;;;7.57;4.00;;;27.90;92.50;;;;;;5073945;28;20487;-70
2022/05/16 10:24:52;;;;;;;10.45;3.90;;;27.80;93.30;;;;;;5085777;28;20477;-70
2022/05/16 10:27:28;;;;;;;8.48;4.95;;;27.80;92.70;;;;;;5085621;28;20036;-71
2022/05/16 10:29:57;;;;;;;9.05;3.95;;;27.90;93.10;;;;;;5077559;28;20012;-71
2022/05/16 10:35:28;;;;;;;8.05;4.05;;;27.70;93.00;;;;;;5067220;28;20075;-71
2022/05/16 10:37:58;;;;;;;6.35;4.35;;;27.70;93.70;;;;;;5089844;28;20470;-72
2022/05/16 10:40:30;;;;;;;12.90;4.68;;;27.60;93.00;;;;;;5080729;28;20031;-71
2022/05/16 10:42:58;;;;;;;8.10;4.15;;;27.50;94.70;;;;;;5082774;28;20044;-71
2022/05/16 10:45:26;;;;;;;8.70;4.15;;;27.20;93.80;;;;;;5089213;28;20383;-72
2022/05/16 10:48:05;;;;;;;7.50;4.10;;;27.10;94.40;;;;;;5073124;28;20094;-71
2022/05/16 10:51:07;;;;;;;10.48;4.50;;;27.00;94.50;;;;;;5074432;28;20363;-71
2022/05/16 10:53:45;;;;;;;9.93;4.70;;;26.90;95.40;;;;;;5066748;28;20013;-71
2022/05/16 10:56:31;;;;;;;9.50;3.90;;;26.80;95.80;;;;;;5067823;28;20514;-70
2022/05/16 10:59:23;;;;;;;8.77;3.70;;;26.60;95.40;;;;;;5066908;28;20016;-70
2022/05/16 11:02:09;;;;;;;7.53;5.10;;;26.60;95.50;;;;;;5069563;28;20024;-71
2022/05/16 11:04:47;;;;;;;10.18;4.55;;;26.40;96.60;;;;;;5066822;28;20029;-71
2022/05/16 11:07:27;;;;;;;9.75;5.32;;;26.40;97.30;;;;;;5061522;28;21851;-71
2022/05/16 11:10:15;;;;;;;12.05;4.97;;;26.30;96.40;;;;;;5073722;28;20090;-71
2022/05/16 11:13:17;;;;;;;9.30;5.22;;;26.20;96.70;;;;;;5073498;28;20044;-71
2022/05/16 11:15:59;;;;;;;10.07;5.55;;;26.10;97.00;;;;;;5075075;28;20033;-72
2022/05/16 11:18:45;;;;;;;15.00;5.60;;;25.90;97.90;;;;;;5073329;28;20376;-72
2022/05/16 11:21:36;;;;;;;12.35;6.70;;;25.80;97.90;;;;;;5072949;28;20028;-73
2022/05/16 11:24:11;;;;;;;15.00;6.88;;;25.60;99.60;;;;;;5075353;28;20031;-73
2022/05/16 11:26:53;;;;;;;12.30;6.85;;;25.60;99.90;;;;;;5059005;28;20376;-73
2022/05/16 11:29:41;;;;;;;10.90;6.00;;;25.70;99.90;;;;;;5076318;28;20039;-72
2022/05/16 11:32:22;;;;;;;8.05;5.40;;;25.60;99.90;;;;;;5065885;28;20040;-72
2022/05/16 11:34:50;;;;;;;9.25;5.50;;;25.60;99.90;;;;;;5071570;28;20029;-72
2022/05/16 11:37:25;;;;;;;8.50;6.22;;;25.50;99.90;;;;;;5072197;28;20028;-72
2022/05/16 11:40:01;;;;;;;11.18;5.88;;;25.40;99.90;;;;;;5062715;28;20024;-72
2022/05/16 11:42:51;;;;;;;8.70;6.10;;;25.40;99.90;;;;;;5055222;28;20027;-72
2022/05/16 11:45:39;;;;;;;10.48;6.40;;;25.40;99.90;;;;;;5066740;28;20410;-72
2022/05/16 11:48:23;;;;;;;10.98;6.35;;;25.40;99.90;;;;;;5065736;28;20024;-72
2022/05/16 11:51:14;;;;;;;11.73;6.47;;;25.40;99.90;;;;;;5070012;28;20043;-72
2022/05/16 11:53:52;;;;;;;18.02;7.97;;;25.40;99.90;;;;;;5073493;28;20322;-73
2022/05/16 12:02:32;;;;;;;13.63;6.72;;;25.10;99.90;;;;;;5068530;28;21051;-71
2022/05/16 12:05:01;;;;;;;9.50;8.10;;;25.00;99.90;;;;;;5077220;28;20493;-71
2022/05/16 12:07:38;;;;;;;9.23;7.78;;;24.90;99.90;;;;;;5065612;28;20029;-71
2022/05/16 12:10:09;;;;;;;12.57;7.80;;;24.80;99.90;;;;;;5073382;28;20028;-72
2022/05/16 12:12:45;;;;;;;15.10;8.40;;;24.90;99.90;;;;;;5075356;28;20039;-71
2022/05/16 12:15:11;;;;;;;8.55;7.63;;;24.90;99.90;;;;;;5067105;28;20032;-72
2022/05/16 12:17:38;;;;;;;11.40;7.60;;;24.90;99.90;;;;;;5060864;28;20058;-71
2022/05/16 12:20:12;;;;;;;11.13;7.93;;;25.00;99.70;;;;;;5062747;28;20025;-72
2022/05/16 12:22:38;;;;;;;26.65;8.43;;;25.20;99.90;;;;;;5060299;28;20423;-72
2022/05/16 12:25:11;;;;;;;9.35;7.72;;;25.40;99.90;;;;;;5051916;28;20042;-71
2022/05/16 12:27:42;;;;;;;12.20;8.68;;;25.60;99.90;;;;;;5066127;28;20032;-71
2022/05/16 12:30:12;;;;;;;16.45;8.00;;;25.70;99.50;;;;;;5062967;28;20043;-72
2022/05/16 12:32:38;;;;;;;11.50;8.10;;;25.70;99.90;;;;;;5064043;28;20469;-72
2022/05/16 12:35:06;;;;;;;12.48;9.65;;;25.60;99.20;;;;;;5060679;28;20032;-72
2022/05/16 12:37:33;;;;;;;10.85;7.75;;;25.40;99.20;;;;;;5061611;28;20029;-73
2022/05/16 12:40:50;;;;;;;15.68;8.95;;;25.30;99.70;;;;;;5057352;28;20032;-72
2022/05/16 12:43:35;;;;;;;11.68;9.40;;;25.00;99.40;;;;;;5048386;28;20048;-71
2022/05/16 12:46:28;;;;;;;12.73;8.98;;;24.80;99.70;;;;;;5061818;28;20035;-72
2022/05/16 12:48:57;;;;;;;16.73;8.90;;;24.70;99.80;;;;;;5062673;28;20335;-72
2022/05/16 12:51:40;;;;;;;15.35;10.07;;;24.70;99.90;;;;;;5064747;28;20055;-72
2022/05/16 12:54:36;;;;;;;12.48;10.45;;;24.60;99.90;;;;;;5073534;28;20051;-72
2022/05/16 12:57:18;;;;;;;15.35;9.93;;;24.70;99.90;;;;;;5072801;28;20032;-71
2022/05/16 12:59:59;;;;;;;14.63;8.95;;;24.50;99.30;;;;;;5077774;28;20036;-71
2022/05/16 13:02:37;;;;;;;13.93;9.60;;;24.50;99.50;;;;;;5074554;28;20064;-71
2022/05/16 13:05:34;;;;;;;12.40;9.52;;;24.40;99.70;;;;;;5070476;28;20052;-71
2022/05/16 13:08:19;;;;;;;12.93;10.13;;;24.50;99.80;;;;;;5081733;28;20466;-71
2022/05/16 13:11:11;;;;;;;12.10;9.18;;;24.40;99.60;;;;;;5070128;28;20024;-71
2022/05/16 13:13:56;;;;;;;13.13;9.57;;;24.40;99.90;;;;;;5066082;28;20432;-71
2022/05/16 13:16:28;;;;;;;10.32;9.18;;;24.30;99.90;;;;;;5073651;28;20032;-71
2022/05/16 13:19:01;;;;;;;17.90;10.20;;;24.20;99.80;;;;;;5076884;28;20020;-70
2022/05/16 13:21:40;;;;;;;13.93;9.27;;;24.20;99.90;;;;;;5078854;28;20047;-70
2022/05/16 13:24:08;;;;;;;18.85;8.88;;;24.10;99.90;;;;;;5070097;28;20063;-69
2022/05/16 13:29:21;;;;;;;10.27;8.75;;;24.10;99.90;;;;;;5074906;28;20032;-69
2022/05/16 13:31:54;;;;;;;13.65;9.38;;;24.20;99.90;;;;;;5077767;28;20068;-69
2022/05/16 13:34:35;;;;;;;12.07;8.70;;;24.30;99.90;;;;;;5076882;28;20082;-68
2022/05/16 13:37:06;;;;;;;11.52;8.40;;;24.40;99.90;;;;;;5075766;28;20064;-69
2022/05/16 13:39:47;;;;;;;14.68;9.38;;;24.40;99.90;;;;;;5075534;28;20048;-70
2022/05/16 13:42:13;;;;;;;12.25;8.65;;;24.60;99.90;;;;;;5074459;28;20493;-69